createdAt,value
2023-01-10T00:03:41.597Z,18.83
2023-01-10T00:08:49.487Z,18.33
2023-01-10T00:13:56.500Z,18.25
2023-01-10T00:19:02.856Z,20.05
2023-01-10T00:24:20.453Z,20.75
2023-01-10T00:29:31.594Z,18.08
2023-01-10T00:34:38.057Z,18.52
2023-01-10T00:39:46.032Z,18.88
2023-01-10T00:44:52.910Z,19.00
2023-01-10T00:49:59.404Z,18.65
2023-01-10T00:55:09.008Z,17.85
2023-01-10T01:00:16.698Z,18.48
2023-01-10T01:05:23.547Z,18.73
2023-01-10T01:10:31.445Z,17.30
2023-01-10T01:15:38.556Z,19.35
2023-01-10T01:20:46.936Z,16.70
2023-01-10T01:25:56.237Z,17.25
2023-01-10T01:31:08.288Z,16.73
2023-01-10T01:36:16.382Z,17.73
2023-01-10T01:41:42.031Z,18.42
2023-01-10T01:46:56.944Z,19.38
2023-01-10T01:52:08.620Z,19.58
2023-01-10T01:57:21.921Z,18.10
2023-01-10T02:02:33.372Z,18.70
2023-01-10T02:07:44.526Z,18.63
2023-01-10T02:12:55.293Z,18.10
2023-01-10T02:18:03.785Z,19.02
2023-01-10T02:23:55.098Z,19.37
2023-01-10T02:29:41.971Z,20.15
2023-01-10T02:35:05.641Z,17.73
2023-01-10T02:40:24.603Z,17.75
2023-01-10T02:51:00.530Z,19.35
2023-01-10T02:57:21.895Z,19.67
2023-01-10T03:02:45.885Z,18.40
2023-01-10T03:08:03.439Z,18.52
2023-01-10T03:13:16.542Z,18.45
2023-01-10T03:18:28.834Z,18.77
2023-01-10T03:23:37.746Z,17.75
2023-01-10T03:28:51.399Z,18.02
2023-01-10T03:33:58.057Z,19.92
2023-01-10T03:39:18.400Z,16.88
2023-01-10T03:44:46.246Z,17.35
2023-01-10T03:49:58.585Z,16.98
2023-01-10T03:55:08.873Z,18.38
2023-01-10T04:00:17.906Z,16.25
2023-01-10T04:10:31.894Z,17.63
2023-01-10T04:15:38.491Z,17.70
2023-01-10T04:20:45.238Z,17.65
2023-01-10T04:25:53.070Z,14.35
2023-01-10T04:30:59.499Z,14.20
2023-01-10T04:36:06.649Z,14.70
2023-01-10T04:41:15.631Z,15.55
2023-01-10T04:51:30.317Z,13.20
2023-01-10T04:56:38.431Z,15.03
2023-01-10T05:01:45.045Z,14.38
2023-01-10T05:06:51.649Z,12.60
2023-01-10T05:11:59.572Z,14.32
2023-01-10T05:17:06.582Z,12.88
2023-01-10T05:22:14.332Z,10.88
2023-01-10T05:27:22.439Z,10.85
2023-01-10T05:32:31.204Z,11.05
2023-01-10T05:37:38.279Z,11.88
2023-01-10T05:42:46.454Z,11.50
2023-01-10T05:47:53.294Z,11.18
2023-01-10T05:53:04.308Z,12.15
2023-01-10T05:58:13.324Z,12.45
2023-01-10T06:03:22.134Z,12.30
2023-01-10T06:13:36.521Z,11.65
2023-01-10T06:18:43.314Z,11.55
2023-01-10T06:23:50.610Z,11.18
2023-01-10T06:28:59.999Z,12.18
2023-01-10T06:34:06.920Z,13.20
2023-01-10T06:39:14.248Z,11.18
2023-01-10T06:44:24.980Z,12.98
2023-01-10T06:49:31.577Z,12.68
2023-01-10T06:54:38.010Z,13.82
2023-01-10T06:59:45.839Z,13.15
2023-01-10T07:04:52.377Z,12.85
2023-01-10T07:10:00.186Z,14.68
2023-01-10T07:15:09.700Z,12.73
2023-01-10T07:20:16.447Z,13.25
2023-01-10T07:25:22.794Z,13.25
2023-01-10T07:30:30.739Z,12.90
2023-01-10T07:35:37.367Z,12.35
2023-01-10T07:40:45.884Z,11.75
2023-01-10T07:45:53.860Z,13.55
2023-01-10T07:51:02.113Z,13.73
2023-01-10T07:56:09.448Z,13.53
2023-01-10T08:01:17.450Z,14.20
2023-01-10T08:06:23.895Z,13.70
2023-01-10T08:11:30.395Z,14.07
2023-01-10T08:16:39.674Z,12.73
2023-01-10T08:26:52.801Z,13.68
2023-01-10T08:32:01.593Z,12.57
2023-01-10T08:37:08.225Z,12.15
2023-01-10T08:42:16.586Z,13.30
2023-01-10T08:47:24.569Z,12.23
2023-01-10T08:52:30.998Z,14.07
2023-01-10T08:57:37.248Z,13.90
2023-01-10T09:02:45.415Z,12.80
2023-01-10T09:07:51.838Z,12.60
2023-01-10T09:13:01.961Z,13.52
2023-01-10T09:18:12.633Z,11.68
2023-01-10T09:23:21.613Z,11.32
2023-01-10T09:28:28.494Z,11.65
2023-01-10T09:33:46.283Z,12.93
2023-01-10T09:38:54.037Z,12.35
2023-01-10T09:44:06.496Z,13.38
2023-01-10T09:49:28.362Z,12.32
2023-01-10T09:54:40.187Z,13.07
2023-01-10T09:59:49.279Z,13.10
2023-01-10T10:10:19.775Z,11.38
2023-01-10T10:15:37.691Z,12.32
2023-01-10T10:20:59.427Z,11.27
2023-01-10T10:26:15.151Z,11.95
2023-01-10T10:31:35.462Z,11.30
2023-01-10T10:36:49.698Z,12.38
2023-01-10T10:41:57.886Z,12.32
2023-01-10T10:47:04.509Z,11.60
2023-01-10T10:52:24.265Z,11.07
2023-01-10T10:57:32.858Z,11.52
2023-01-10T11:02:45.255Z,12.27
2023-01-10T11:07:56.920Z,12.38
2023-01-10T11:13:05.467Z,11.07
2023-01-10T11:18:16.893Z,10.88
2023-01-10T11:23:39.508Z,11.73
2023-01-10T11:28:46.325Z,12.23
2023-01-10T11:33:52.942Z,10.43
2023-01-10T11:39:06.439Z,10.50
2023-01-10T11:44:24.059Z,10.18
2023-01-10T11:49:44.535Z,10.23
2023-01-10T11:54:55.392Z,11.32
2023-01-10T12:00:07.937Z,10.15
2023-01-10T12:05:23.921Z,10.60
2023-01-10T12:10:31.837Z,9.93
2023-01-10T12:15:38.913Z,10.65
2023-01-10T12:20:50.676Z,9.85
2023-01-10T12:26:11.417Z,10.00
2023-01-10T12:31:19.605Z,10.15
2023-01-10T12:36:46.391Z,10.90
2023-01-10T12:42:33.339Z,9.50
2023-01-10T12:47:58.539Z,10.10
2023-01-10T12:53:14.961Z,10.40
2023-01-10T12:58:25.868Z,11.45
2023-01-10T13:03:35.511Z,11.07
2023-01-10T13:08:44.010Z,10.88
2023-01-10T13:13:58.932Z,11.43
2023-01-10T13:19:24.327Z,10.32
2023-01-10T13:24:31.307Z,11.60
2023-01-10T13:29:45.086Z,12.45
2023-01-10T13:34:52.532Z,9.50
2023-01-10T13:40:02.445Z,12.15
2023-01-10T13:45:22.698Z,11.60
2023-01-10T13:51:09.439Z,12.93
2023-01-10T13:56:36.040Z,11.63
2023-01-10T14:02:03.208Z,12.00
2023-01-10T14:07:23.347Z,11.60
2023-01-10T14:12:40.212Z,11.13
2023-01-10T14:18:02.714Z,11.93
2023-01-10T14:23:20.825Z,11.40
2023-01-10T14:28:31.388Z,13.55
2023-01-10T14:33:43.753Z,13.38
2023-01-10T14:38:57.007Z,11.70
2023-01-10T14:44:12.707Z,11.48
2023-01-10T14:49:27.971Z,11.30
2023-01-10T14:54:36.283Z,11.00
2023-01-10T14:59:42.894Z,10.75
2023-01-10T15:04:56.365Z,10.00
2023-01-10T15:10:06.485Z,9.32
2023-01-10T15:15:19.346Z,9.65
2023-01-10T15:20:28.511Z,10.68
2023-01-10T15:25:38.355Z,9.63
2023-01-10T15:30:45.938Z,8.70
2023-01-10T15:35:54.366Z,9.65
2023-01-10T15:41:03.858Z,10.57
2023-01-10T15:46:21.689Z,9.50
2023-01-10T15:51:36.867Z,11.95
2023-01-10T15:56:49.928Z,11.75
2023-01-10T16:01:58.264Z,11.95
2023-01-10T16:07:16.999Z,12.02
2023-01-10T16:12:46.830Z,11.13
2023-01-10T16:17:55.162Z,11.60
2023-01-10T16:23:05.422Z,10.83
2023-01-10T16:28:15.633Z,11.07
2023-01-10T16:33:24.998Z,10.90
2023-01-10T16:38:33.503Z,10.32
2023-01-10T16:43:40.114Z,11.00
2023-01-10T16:48:48.019Z,9.98
2023-01-10T16:53:56.492Z,11.48
2023-01-10T16:59:04.738Z,10.85
2023-01-10T17:04:19.840Z,10.93
2023-01-10T17:09:30.797Z,11.68
2023-01-10T17:14:39.076Z,8.90
2023-01-10T17:19:47.564Z,8.43
2023-01-10T17:24:55.915Z,11.82
2023-01-10T17:30:02.645Z,11.88
2023-01-10T17:35:11.755Z,11.73
2023-01-10T17:40:23.345Z,12.40
2023-01-10T17:45:55.068Z,12.68
2023-01-10T17:51:03.781Z,14.70
2023-01-10T17:56:12.440Z,16.65
2023-01-10T18:01:24.823Z,18.55
2023-01-10T18:06:31.943Z,18.05
2023-01-10T18:11:40.562Z,16.35
2023-01-10T18:16:47.899Z,18.63
2023-01-10T18:21:55.239Z,16.95
2023-01-10T18:27:04.295Z,20.52
2023-01-10T18:32:11.955Z,19.00
2023-01-10T18:37:19.679Z,17.98
2023-01-10T18:42:28.538Z,17.10
2023-01-10T18:47:39.855Z,18.85
2023-01-10T18:52:47.837Z,21.20
2023-01-10T18:57:56.561Z,18.95
2023-01-10T19:03:04.294Z,17.27
2023-01-10T19:08:15.141Z,19.05
2023-01-10T19:13:24.677Z,22.83
2023-01-10T19:18:32.904Z,24.15
2023-01-10T19:23:42.271Z,25.05
2023-01-10T19:28:51.150Z,23.95
2023-01-10T19:34:02.158Z,24.60
2023-01-10T19:39:10.724Z,23.23
2023-01-10T19:44:20.735Z,24.70
2023-01-10T19:49:32.379Z,23.30
2023-01-10T19:54:42.154Z,24.55
2023-01-10T19:59:56.678Z,22.00
2023-01-10T20:05:04.459Z,22.77
2023-01-10T20:10:12.987Z,24.02
2023-01-10T20:15:22.890Z,24.50
2023-01-10T20:20:31.725Z,24.83
2023-01-10T20:25:39.265Z,24.48
2023-01-10T20:30:49.925Z,21.88
2023-01-10T20:35:59.963Z,25.75
2023-01-10T20:41:11.481Z,23.02
2023-01-10T20:46:22.108Z,23.58
2023-01-10T20:51:33.430Z,21.92
2023-01-10T20:56:40.924Z,21.15
2023-01-10T21:01:49.318Z,21.88
2023-01-10T21:06:55.976Z,18.70
2023-01-10T21:12:17.670Z,20.95
2023-01-10T21:17:31.104Z,21.77
2023-01-10T21:22:38.011Z,21.10
2023-01-10T21:27:44.328Z,21.25
2023-01-10T21:32:52.447Z,19.15
2023-01-10T21:37:59.407Z,20.60
2023-01-10T21:43:06.319Z,20.15
2023-01-10T21:48:14.632Z,18.80
2023-01-10T21:53:21.293Z,20.27
2023-01-10T21:58:27.694Z,19.90
2023-01-10T22:03:36.262Z,18.63
2023-01-10T22:08:43.977Z,18.20
2023-01-10T22:13:52.255Z,20.58
2023-01-10T22:19:00.674Z,22.50
2023-01-10T22:24:09.380Z,21.25
2023-01-10T22:29:16.651Z,19.25
2023-01-10T22:34:24.864Z,19.85
2023-01-10T22:39:31.505Z,17.07
2023-01-10T22:44:38.158Z,21.90
2023-01-10T22:49:46.476Z,20.80
2023-01-10T22:54:53.024Z,17.77
2023-01-10T23:05:24.925Z,18.88
2023-01-10T23:10:34.131Z,20.23
2023-01-10T23:20:50.402Z,18.88
2023-01-10T23:26:04.607Z,20.52
2023-01-10T23:31:11.769Z,19.38
2023-01-10T23:36:20.441Z,21.50
2023-01-10T23:41:26.946Z,20.88
2023-01-10T23:46:33.123Z,19.08
2023-01-10T23:51:41.322Z,20.70
2023-01-10T23:56:47.764Z,19.67
